createdAt,value
2023-02-19T00:00:39.005Z,11.20
2023-02-19T00:03:29.884Z,10.52
2023-02-19T00:06:02.335Z,10.55
2023-02-19T00:08:32.811Z,10.78
2023-02-19T00:11:08.146Z,11.12
2023-02-19T00:13:39.119Z,11.30
2023-02-19T00:16:09.328Z,10.93
2023-02-19T00:18:39.059Z,10.79
2023-02-19T00:21:09.149Z,10.92
2023-02-19T00:23:39.066Z,10.93
2023-02-19T00:26:18.280Z,10.88
2023-02-19T00:28:51.322Z,10.83
2023-02-19T00:31:23.933Z,10.51
2023-02-19T00:33:55.505Z,10.68
2023-02-19T00:36:25.486Z,10.80
2023-02-19T00:38:55.458Z,10.59
2023-02-19T00:41:26.746Z,10.39
2023-02-19T00:43:59.202Z,10.47
2023-02-19T00:46:30.213Z,9.94
2023-02-19T00:49:00.423Z,9.88
2023-02-19T00:51:32.003Z,10.20
2023-02-19T00:54:01.698Z,9.76
2023-02-19T00:56:32.497Z,9.56
2023-02-19T00:59:01.960Z,9.94
2023-02-19T01:01:31.272Z,9.92
2023-02-19T01:04:00.827Z,9.09
2023-02-19T01:06:32.499Z,9.62
2023-02-19T01:09:02.049Z,9.46
2023-02-19T01:11:32.796Z,9.37
2023-02-19T01:14:03.651Z,9.61
2023-02-19T01:16:32.948Z,9.87
2023-02-19T01:19:02.673Z,9.79
2023-02-19T01:21:32.877Z,9.63
2023-02-19T01:24:02.585Z,10.07
2023-02-19T01:26:34.505Z,10.34
2023-02-19T01:29:06.224Z,10.36
2023-02-19T01:31:36.806Z,9.48
2023-02-19T01:34:06.545Z,10.15
2023-02-19T01:36:37.397Z,9.65
2023-02-19T01:39:08.243Z,9.64
2023-02-19T01:41:41.721Z,9.67
2023-02-19T01:44:50.177Z,9.62
2023-02-19T01:47:21.315Z,9.82
2023-02-19T01:49:56.048Z,9.60
2023-02-19T01:52:32.676Z,9.99
2023-02-19T01:55:05.907Z,10.07
2023-02-19T01:57:43.080Z,9.65
2023-02-19T02:00:15.370Z,10.31
2023-02-19T02:02:49.256Z,9.97
2023-02-19T02:05:40.420Z,10.64
2023-02-19T02:08:27.378Z,10.87
2023-02-19T02:10:57.298Z,9.97
2023-02-19T02:13:28.099Z,10.32
2023-02-19T02:16:12.433Z,10.29
2023-02-19T02:18:55.359Z,10.30
2023-02-19T02:21:37.542Z,10.41
2023-02-19T02:24:32.091Z,9.94
2023-02-19T02:27:24.166Z,10.11
2023-02-19T02:30:36.125Z,10.17
2023-02-19T02:33:16.274Z,10.04
2023-02-19T02:35:50.854Z,10.70
2023-02-19T02:38:26.494Z,11.27
2023-02-19T02:40:58.016Z,10.50
2023-02-19T02:43:28.253Z,10.03
2023-02-19T02:45:59.373Z,10.41
2023-02-19T02:48:38.582Z,11.09
2023-02-19T02:51:20.489Z,10.71
2023-02-19T02:54:22.464Z,9.93
2023-02-19T02:56:53.888Z,10.00
2023-02-19T02:59:25.577Z,9.89
2023-02-19T03:02:14.085Z,10.51
2023-02-19T03:05:09.242Z,10.22
2023-02-19T03:07:44.718Z,9.96
2023-02-19T03:10:17.597Z,9.90
2023-02-19T03:13:14.413Z,10.41
2023-02-19T03:16:15.590Z,11.29
2023-02-19T03:19:06.633Z,10.83
2023-02-19T03:21:39.339Z,10.51
2023-02-19T03:24:30.739Z,10.52
2023-02-19T03:27:02.170Z,10.71
2023-02-19T03:29:39.675Z,10.78
2023-02-19T03:33:35.614Z,10.32
2023-02-19T03:36:12.790Z,10.25
2023-02-19T03:38:49.309Z,10.30
2023-02-19T03:41:25.294Z,9.83
2023-02-19T03:44:05.304Z,10.48
2023-02-19T03:46:43.872Z,9.96
2023-02-19T03:49:24.015Z,10.26
2023-02-19T03:52:03.175Z,9.60
2023-02-19T03:54:38.638Z,10.46
2023-02-19T03:57:20.507Z,10.08
2023-02-19T03:59:55.473Z,9.73
2023-02-19T04:02:31.371Z,10.39
2023-02-19T04:05:08.188Z,10.17
2023-02-19T04:07:44.786Z,9.70
2023-02-19T04:10:15.435Z,9.71
2023-02-19T04:12:51.597Z,9.55
2023-02-19T04:15:26.492Z,10.12
2023-02-19T04:18:00.203Z,9.72
2023-02-19T04:20:35.243Z,10.18
2023-02-19T04:23:05.995Z,10.52
2023-02-19T04:25:36.951Z,10.08
2023-02-19T04:28:06.475Z,9.80
2023-02-19T04:30:36.076Z,9.93
2023-02-19T04:33:05.517Z,9.99
2023-02-19T04:35:35.081Z,9.65
2023-02-19T04:38:05.856Z,9.38
2023-02-19T04:40:35.520Z,9.63
2023-02-19T04:43:04.743Z,9.11
2023-02-19T04:45:34.312Z,9.46
2023-02-19T04:48:03.718Z,9.25
2023-02-19T04:50:33.318Z,9.66
2023-02-19T04:53:02.567Z,9.47
2023-02-19T04:55:33.391Z,9.38
2023-02-19T04:58:02.733Z,9.56
2023-02-19T05:00:34.064Z,9.74
2023-02-19T05:03:04.040Z,9.70
2023-02-19T05:05:33.834Z,9.38
2023-02-19T05:08:03.114Z,9.57
2023-02-19T05:10:34.046Z,9.91
2023-02-19T05:13:03.231Z,9.65
2023-02-19T05:15:32.729Z,10.40
2023-02-19T05:18:01.974Z,9.61
2023-02-19T05:20:31.681Z,9.35
2023-02-19T05:23:01.027Z,9.49
2023-02-19T05:25:30.570Z,9.21
2023-02-19T05:28:15.007Z,9.54
2023-02-19T05:30:45.054Z,9.93
2023-02-19T05:33:14.958Z,10.31
2023-02-19T05:35:45.484Z,10.12
2023-02-19T05:38:15.137Z,10.04
2023-02-19T05:40:45.164Z,10.87
2023-02-19T05:43:16.251Z,10.49
2023-02-19T05:45:45.873Z,10.53
2023-02-19T05:48:15.272Z,10.32
2023-02-19T05:50:44.861Z,10.70
2023-02-19T05:53:14.931Z,10.70
2023-02-19T05:55:44.400Z,10.21
2023-02-19T05:58:14.935Z,10.21
2023-02-19T06:00:44.392Z,10.09
2023-02-19T06:03:13.667Z,10.24
2023-02-19T06:05:43.329Z,10.20
2023-02-19T06:08:13.975Z,10.39
2023-02-19T06:10:43.587Z,10.55
2023-02-19T06:13:16.254Z,10.38
2023-02-19T06:15:47.110Z,10.38
2023-02-19T06:18:16.293Z,10.05
2023-02-19T06:20:45.805Z,10.37
2023-02-19T06:23:15.745Z,10.77
2023-02-19T06:25:45.451Z,10.45
2023-02-19T06:28:16.032Z,10.78
2023-02-19T06:30:45.668Z,10.63
2023-02-19T06:33:14.955Z,10.08
2023-02-19T06:35:44.431Z,9.91
2023-02-19T06:38:13.596Z,10.66
2023-02-19T06:40:43.055Z,10.80
2023-02-19T06:43:12.463Z,11.44
2023-02-19T06:45:43.652Z,11.01
2023-02-19T06:48:12.922Z,10.84
2023-02-19T06:50:42.417Z,11.11
2023-02-19T06:53:11.828Z,11.33
2023-02-19T06:55:41.637Z,10.57
2023-02-19T06:58:11.054Z,10.57
2023-02-19T07:00:42.426Z,11.31
2023-02-19T07:03:11.801Z,11.03
2023-02-19T07:05:41.387Z,11.03
2023-02-19T07:08:10.625Z,10.83
2023-02-19T07:10:40.195Z,10.76
2023-02-19T07:13:09.389Z,11.85
2023-02-19T07:15:38.843Z,11.30
2023-02-19T07:18:10.614Z,11.12
2023-02-19T07:20:40.323Z,10.70
2023-02-19T07:23:09.613Z,10.90
2023-02-19T07:25:40.170Z,10.90
2023-02-19T07:28:09.645Z,11.27
2023-02-19T07:30:39.210Z,11.16
2023-02-19T07:33:11.577Z,11.04
2023-02-19T07:35:47.484Z,11.18
2023-02-19T07:38:18.346Z,11.25
2023-02-19T07:40:53.433Z,11.67
2023-02-19T07:43:25.515Z,11.91
2023-02-19T07:45:55.556Z,11.24
2023-02-19T07:48:26.444Z,11.59
2023-02-19T07:50:57.205Z,10.93
2023-02-19T07:53:27.672Z,11.32
2023-02-19T07:56:02.210Z,11.54
2023-02-19T07:58:31.936Z,10.87
2023-02-19T08:01:09.927Z,11.50
2023-02-19T08:03:40.254Z,11.61
2023-02-19T08:06:11.639Z,11.51
2023-02-19T08:08:41.587Z,11.32
2023-02-19T08:11:29.775Z,11.59
2023-02-19T08:13:59.098Z,10.65
2023-02-19T08:16:42.248Z,11.41
2023-02-19T08:19:13.797Z,11.19
2023-02-19T08:21:43.394Z,11.58
2023-02-19T08:24:12.999Z,11.26
2023-02-19T08:26:42.579Z,11.42
2023-02-19T08:29:11.964Z,11.36
2023-02-19T08:31:41.950Z,11.24
2023-02-19T08:34:12.952Z,11.63
2023-02-19T08:36:42.746Z,12.05
2023-02-19T08:39:12.113Z,12.01
2023-02-19T08:41:41.645Z,11.85
2023-02-19T08:44:10.980Z,11.94
2023-02-19T08:46:40.596Z,12.06
2023-02-19T08:49:09.828Z,12.06
2023-02-19T08:51:40.835Z,12.47
2023-02-19T08:54:10.028Z,11.97
2023-02-19T08:56:39.664Z,11.77
2023-02-19T08:59:08.922Z,12.44
2023-02-19T09:01:38.453Z,11.84
2023-02-19T09:04:07.752Z,12.51
2023-02-19T09:06:39.154Z,12.69
2023-02-19T09:09:10.930Z,12.24
2023-02-19T09:11:41.046Z,11.94
2023-02-19T09:14:10.776Z,11.91
2023-02-19T09:16:40.384Z,11.96
2023-02-19T09:19:09.627Z,12.07
2023-02-19T09:21:39.333Z,12.64
2023-02-19T09:24:11.981Z,12.01
2023-02-19T09:26:41.507Z,12.26
2023-02-19T09:29:10.795Z,13.60
2023-02-19T09:31:40.551Z,14.24
2023-02-19T09:34:11.862Z,13.60
2023-02-19T09:36:41.815Z,13.75
2023-02-19T09:39:13.207Z,13.39
2023-02-19T09:41:47.191Z,13.43
2023-02-19T09:44:22.480Z,13.15
2023-02-19T09:46:55.129Z,13.66
2023-02-19T09:49:30.384Z,13.94
2023-02-19T09:52:01.958Z,12.92
2023-02-19T09:54:33.399Z,12.64
2023-02-19T09:57:05.024Z,13.46
2023-02-19T09:59:42.202Z,13.05
2023-02-19T10:02:17.494Z,14.43
2023-02-19T10:04:48.371Z,15.36
2023-02-19T10:07:20.380Z,15.32
2023-02-19T10:09:56.998Z,14.91
2023-02-19T10:12:28.861Z,14.85
2023-02-19T10:15:02.980Z,14.51
2023-02-19T10:17:34.930Z,14.88
2023-02-19T10:20:05.122Z,13.38
2023-02-19T10:22:38.063Z,13.74
2023-02-19T10:25:09.383Z,14.11
2023-02-19T10:27:39.087Z,14.79
2023-02-19T10:30:18.600Z,15.23
2023-02-19T10:33:04.624Z,15.85
2023-02-19T10:35:38.900Z,16.80
2023-02-19T10:38:08.792Z,16.78
2023-02-19T10:40:46.782Z,16.60
2023-02-19T10:43:31.182Z,15.69
2023-02-19T10:46:06.157Z,15.87
2023-02-19T10:48:39.126Z,17.33
2023-02-19T10:51:10.851Z,19.14
2023-02-19T10:53:45.153Z,20.79
2023-02-19T10:56:23.874Z,22.94
2023-02-19T10:58:54.284Z,23.10
2023-02-19T11:01:25.761Z,25.53
2023-02-19T11:04:15.565Z,26.96
2023-02-19T11:06:46.326Z,26.85
2023-02-19T11:09:28.097Z,22.32
2023-02-19T11:11:59.957Z,22.02
2023-02-19T11:14:31.739Z,23.09
2023-02-19T11:17:04.104Z,23.99
2023-02-19T11:19:39.020Z,23.57
2023-02-19T11:22:21.668Z,26.71
2023-02-19T11:24:56.692Z,28.42
2023-02-19T11:27:28.473Z,27.94
2023-02-19T11:30:18.545Z,23.13
2023-02-19T11:32:47.957Z,18.69
2023-02-19T11:35:22.536Z,19.72
2023-02-19T11:37:59.410Z,18.11
2023-02-19T11:40:42.789Z,20.77
2023-02-19T11:43:36.931Z,24.64
2023-02-19T11:46:14.330Z,26.19
2023-02-19T11:48:54.931Z,27.93
2023-02-19T11:51:52.728Z,24.72
2023-02-19T11:54:49.300Z,24.19
2023-02-19T11:57:37.103Z,26.49
2023-02-19T12:00:26.435Z,26.78
2023-02-19T12:03:07.562Z,25.79
2023-02-19T12:05:49.189Z,25.52
2023-02-19T12:08:57.852Z,25.18
2023-02-19T12:11:50.522Z,22.79
2023-02-19T12:14:53.609Z,21.11
2023-02-19T12:17:42.910Z,23.97
2023-02-19T12:20:24.135Z,26.22
2023-02-19T12:23:05.379Z,28.73
2023-02-19T12:25:58.368Z,26.95
2023-02-19T12:29:02.880Z,26.11
2023-02-19T12:32:03.489Z,27.56
2023-02-19T12:35:11.835Z,27.54
2023-02-19T12:37:52.207Z,26.89
2023-02-19T12:40:34.882Z,24.53
2023-02-19T12:43:13.341Z,26.82
2023-02-19T12:45:48.313Z,25.75
2023-02-19T12:48:28.088Z,27.64
2023-02-19T12:51:03.924Z,30.32
2023-02-19T12:53:41.378Z,27.74
2023-02-19T12:56:18.859Z,29.29
2023-02-19T12:58:52.070Z,28.50
2023-02-19T13:01:25.987Z,27.51
2023-02-19T13:04:17.296Z,28.55
2023-02-19T13:06:53.808Z,28.71
2023-02-19T13:09:29.840Z,27.64
2023-02-19T13:12:04.480Z,26.94
2023-02-19T13:14:39.013Z,27.43
2023-02-19T13:17:18.412Z,26.94
2023-02-19T13:19:51.591Z,28.36
2023-02-19T13:22:48.821Z,30.25
2023-02-19T13:25:20.404Z,28.21
2023-02-19T13:28:00.441Z,26.55
2023-02-19T13:30:50.156Z,28.91
2023-02-19T13:33:42.323Z,27.03
2023-02-19T13:36:18.211Z,24.96
2023-02-19T13:38:51.304Z,24.96
2023-02-19T13:41:32.348Z,28.52
2023-02-19T13:44:08.230Z,27.26
2023-02-19T13:46:41.518Z,28.17
2023-02-19T13:49:45.648Z,26.33
2023-02-19T13:52:43.593Z,23.09
2023-02-19T13:55:53.141Z,25.48
2023-02-19T13:58:56.269Z,24.37
2023-02-19T14:02:17.766Z,23.32
2023-02-19T14:04:51.569Z,23.81
2023-02-19T14:07:52.655Z,23.77
2023-02-19T14:11:08.818Z,25.35
2023-02-19T14:14:06.745Z,24.12
2023-02-19T14:17:07.626Z,24.25
2023-02-19T14:19:50.170Z,26.14
2023-02-19T14:23:01.738Z,22.09
2023-02-19T14:25:40.747Z,20.58
2023-02-19T14:28:22.783Z,20.41
2023-02-19T14:30:55.601Z,23.11
2023-02-19T14:33:27.523Z,21.83
2023-02-19T14:36:01.153Z,20.36
2023-02-19T14:38:34.919Z,19.68
2023-02-19T14:41:05.245Z,17.93
2023-02-19T14:43:37.648Z,17.79
2023-02-19T14:46:17.328Z,18.52
2023-02-19T14:48:49.212Z,18.70
2023-02-19T14:51:26.426Z,18.45
2023-02-19T14:53:57.604Z,19.23
2023-02-19T14:56:31.081Z,19.91
2023-02-19T14:59:32.204Z,17.29
2023-02-19T15:02:04.539Z,18.51
2023-02-19T15:04:38.476Z,20.03
2023-02-19T15:07:11.875Z,18.99
2023-02-19T15:09:45.747Z,19.31
2023-02-19T15:12:18.553Z,18.44
2023-02-19T15:14:49.886Z,17.34
2023-02-19T15:17:26.938Z,17.47
2023-02-19T15:19:59.033Z,16.93
2023-02-19T15:22:32.008Z,15.90
2023-02-19T15:25:03.171Z,15.34
2023-02-19T15:27:33.095Z,14.69
2023-02-19T15:30:03.054Z,14.74
2023-02-19T15:32:33.993Z,14.41
2023-02-19T15:35:05.893Z,12.71
2023-02-19T15:37:36.954Z,11.12
2023-02-19T15:40:09.325Z,11.29
2023-02-19T15:42:39.446Z,10.26
2023-02-19T15:45:17.845Z,10.90
2023-02-19T15:47:54.209Z,10.59
2023-02-19T15:50:28.084Z,10.51
2023-02-19T15:53:04.332Z,10.72
2023-02-19T15:55:40.573Z,10.43
2023-02-19T15:58:16.813Z,10.45
2023-02-19T16:00:50.497Z,9.97
2023-02-19T16:03:23.138Z,9.54
2023-02-19T16:06:01.696Z,9.48
2023-02-19T16:08:33.229Z,9.77
2023-02-19T16:11:05.439Z,9.85
2023-02-19T16:13:36.157Z,9.41
2023-02-19T16:16:16.226Z,9.45
2023-02-19T16:18:50.213Z,9.53
2023-02-19T16:21:23.935Z,9.07
2023-02-19T16:24:01.256Z,8.72
2023-02-19T16:26:32.613Z,9.22
2023-02-19T16:29:02.067Z,8.87
2023-02-19T16:31:31.769Z,9.07
2023-02-19T16:34:18.940Z,9.18
2023-02-19T16:36:49.367Z,8.88
2023-02-19T16:39:25.602Z,9.27
2023-02-19T16:42:19.635Z,9.05
2023-02-19T16:44:49.664Z,9.09
2023-02-19T16:47:30.828Z,9.40
2023-02-19T16:50:03.970Z,8.76
2023-02-19T16:52:34.444Z,9.29
2023-02-19T16:55:04.010Z,9.61
2023-02-19T16:57:33.597Z,9.06
2023-02-19T17:00:02.890Z,9.16
2023-02-19T17:02:33.790Z,9.30
2023-02-19T17:05:04.583Z,9.16
2023-02-19T17:07:34.333Z,8.74
2023-02-19T17:10:04.145Z,8.74
2023-02-19T17:12:33.707Z,9.57
2023-02-19T17:15:03.081Z,9.30
2023-02-19T17:17:32.832Z,8.97
2023-02-19T17:20:03.622Z,9.39
2023-02-19T17:22:33.658Z,9.50
2023-02-19T17:25:03.471Z,9.21
2023-02-19T17:27:33.061Z,9.41
2023-02-19T17:30:02.399Z,9.25
2023-02-19T17:32:32.219Z,9.28
2023-02-19T17:35:03.452Z,9.11
2023-02-19T17:37:32.967Z,9.53
2023-02-19T17:40:02.526Z,9.10
2023-02-19T17:42:32.397Z,9.24
2023-02-19T17:45:02.031Z,9.34
2023-02-19T17:47:34.142Z,8.74
2023-02-19T17:50:06.979Z,8.72
2023-02-19T17:52:36.618Z,8.81
2023-02-19T17:55:07.489Z,8.79
2023-02-19T17:57:37.646Z,9.40
2023-02-19T18:00:08.322Z,8.93
2023-02-19T18:02:42.476Z,9.29
2023-02-19T18:05:14.103Z,9.10
2023-02-19T18:07:45.513Z,9.19
2023-02-19T18:10:15.562Z,9.41
2023-02-19T18:12:45.393Z,9.10
2023-02-19T18:15:21.143Z,9.18
2023-02-19T18:17:50.913Z,9.23
2023-02-19T18:20:24.380Z,9.20
2023-02-19T18:22:54.426Z,8.93
2023-02-19T18:25:24.577Z,9.36
2023-02-19T18:27:54.698Z,9.18
2023-02-19T18:30:25.760Z,9.00
2023-02-19T18:32:55.478Z,9.22
2023-02-19T18:35:26.236Z,8.90
2023-02-19T18:37:56.657Z,9.26
2023-02-19T18:40:27.106Z,9.12
2023-02-19T18:42:56.849Z,9.11
2023-02-19T18:45:26.192Z,9.19
2023-02-19T18:47:55.793Z,9.33
2023-02-19T18:50:26.534Z,9.25
2023-02-19T18:52:56.243Z,8.55
2023-02-19T18:55:25.609Z,9.57
2023-02-19T18:57:55.192Z,9.26
2023-02-19T19:00:26.789Z,9.63
2023-02-19T19:03:00.785Z,9.02
2023-02-19T19:05:31.697Z,9.34
2023-02-19T19:08:01.976Z,9.66
2023-02-19T19:10:32.164Z,9.16
2023-02-19T19:13:01.690Z,9.04
2023-02-19T19:15:31.260Z,9.43
2023-02-19T19:18:02.836Z,9.81
2023-02-19T19:20:33.680Z,9.86
2023-02-19T19:23:04.998Z,9.56
2023-02-19T19:25:34.468Z,10.14
2023-02-19T19:28:04.744Z,9.46
2023-02-19T19:30:34.386Z,9.68
2023-02-19T19:33:04.484Z,10.17
2023-02-19T19:35:35.428Z,9.81
2023-02-19T19:38:05.203Z,9.97
2023-02-19T19:40:35.995Z,9.62
2023-02-19T19:43:05.987Z,10.11
2023-02-19T19:45:35.256Z,9.72
2023-02-19T19:48:07.349Z,10.13
2023-02-19T19:50:37.958Z,9.97
2023-02-19T19:53:07.495Z,10.10
2023-02-19T19:55:36.824Z,10.10
2023-02-19T19:58:07.435Z,10.42
2023-02-19T20:00:38.238Z,9.50
2023-02-19T20:03:08.010Z,10.44
2023-02-19T20:05:38.678Z,10.71
2023-02-19T20:08:08.522Z,10.29
2023-02-19T20:10:37.859Z,10.35
2023-02-19T20:13:07.567Z,10.07
2023-02-19T20:15:37.190Z,10.54
2023-02-19T20:18:07.120Z,10.35
2023-02-19T20:20:38.505Z,10.65
2023-02-19T20:23:08.293Z,10.17
2023-02-19T20:25:37.740Z,10.28
2023-02-19T20:28:08.240Z,10.76
2023-02-19T20:30:37.569Z,10.15
2023-02-19T20:33:08.213Z,10.56
2023-02-19T20:35:39.639Z,10.19
2023-02-19T20:38:09.357Z,11.04
2023-02-19T20:40:39.019Z,10.92
2023-02-19T20:43:08.545Z,9.92
2023-02-19T20:45:37.898Z,10.22
2023-02-19T20:48:07.611Z,10.85
2023-02-19T20:50:38.300Z,10.04
2023-02-19T20:53:08.394Z,10.56
2023-02-19T20:55:37.604Z,10.05
2023-02-19T20:58:07.232Z,10.55
2023-02-19T21:00:36.506Z,10.26
2023-02-19T21:03:09.106Z,10.18
2023-02-19T21:05:40.763Z,9.74
2023-02-19T21:08:11.739Z,9.98
2023-02-19T21:10:41.074Z,10.56
2023-02-19T21:13:11.854Z,10.69
2023-02-19T21:15:41.437Z,10.24
2023-02-19T21:18:11.121Z,9.92
2023-02-19T21:20:42.191Z,10.26
2023-02-19T21:23:11.893Z,10.79
2023-02-19T21:25:41.049Z,10.56
2023-02-19T21:28:10.932Z,10.25
2023-02-19T21:30:40.201Z,10.90
2023-02-19T21:33:10.021Z,10.81
2023-02-19T21:35:39.199Z,10.21
2023-02-19T21:38:10.225Z,10.84
2023-02-19T21:40:39.719Z,10.70
2023-02-19T21:43:09.304Z,11.07
2023-02-19T21:45:38.497Z,11.05
2023-02-19T21:48:09.993Z,10.69
2023-02-19T21:50:40.324Z,11.03
2023-02-19T21:53:11.361Z,10.78
2023-02-19T21:55:52.900Z,11.05
2023-02-19T21:58:27.381Z,11.17
2023-02-19T22:00:58.137Z,11.06
2023-02-19T22:03:27.851Z,10.63
2023-02-19T22:05:57.443Z,10.90
2023-02-19T22:08:28.364Z,10.35
2023-02-19T22:10:57.647Z,10.95
2023-02-19T22:13:27.172Z,10.66
2023-02-19T22:15:56.342Z,10.57
2023-02-19T22:18:26.007Z,10.60
2023-02-19T22:20:55.402Z,10.83
2023-02-19T22:23:24.826Z,11.27
2023-02-19T22:25:55.406Z,10.36
2023-02-19T22:28:24.918Z,10.70
2023-02-19T22:30:54.098Z,10.57
2023-02-19T22:33:23.538Z,11.02
2023-02-19T22:35:52.689Z,10.60
2023-02-19T22:38:22.338Z,10.59
2023-02-19T22:40:51.470Z,10.23
2023-02-19T22:43:22.465Z,10.77
2023-02-19T22:45:51.704Z,10.51
2023-02-19T22:48:29.567Z,10.33
2023-02-19T22:50:59.568Z,10.22
2023-02-19T22:53:29.127Z,10.05
2023-02-19T22:55:58.270Z,9.94
2023-02-19T22:58:29.128Z,10.26
2023-02-19T23:00:58.344Z,10.25
2023-02-19T23:03:27.844Z,10.44
2023-02-19T23:05:57.139Z,10.33
2023-02-19T23:08:26.733Z,10.26
2023-02-19T23:10:55.917Z,10.60
2023-02-19T23:13:25.384Z,10.60
2023-02-19T23:15:55.983Z,10.94
2023-02-19T23:18:25.537Z,10.98
2023-02-19T23:20:55.096Z,11.27
2023-02-19T23:23:24.587Z,11.45
2023-02-19T23:25:53.775Z,10.82
2023-02-19T23:28:23.209Z,10.54
2023-02-19T23:30:52.519Z,10.94
2023-02-19T23:33:23.605Z,10.70
2023-02-19T23:35:52.780Z,10.57
2023-02-19T23:38:22.398Z,10.87
2023-02-19T23:40:51.658Z,11.29
2023-02-19T23:43:21.163Z,10.63
2023-02-19T23:45:51.365Z,10.75
2023-02-19T23:48:22.254Z,11.40
2023-02-19T23:50:51.408Z,11.56
2023-02-19T23:53:21.143Z,11.72
2023-02-19T23:55:51.716Z,10.92
2023-02-19T23:58:21.201Z,11.22
